sensor_id;sensor_type;location;lat;lon;timestamp;temperature;humidity
79760;DHT22;70512;42.122;24.732;2023-06-22T00:01:02;24.10;56.30
79760;DHT22;70512;42.122;24.732;2023-06-22T00:03:33;24.20;56.50
79760;DHT22;70512;42.122;24.732;2023-06-22T00:06:00;24.30;56.40
79760;DHT22;70512;42.122;24.732;2023-06-22T00:08:29;24.20;56.50
79760;DHT22;70512;42.122;24.732;2023-06-22T00:10:58;24.10;57.00
79760;DHT22;70512;42.122;24.732;2023-06-22T00:13:25;24.10;57.30
79760;DHT22;70512;42.122;24.732;2023-06-22T00:15:53;24.00;57.50
79760;DHT22;70512;42.122;24.732;2023-06-22T00:18:20;24.10;57.50
79760;DHT22;70512;42.122;24.732;2023-06-22T00:20:48;24.00;57.40
79760;DHT22;70512;42.122;24.732;2023-06-22T00:23:16;24.00;57.40
79760;DHT22;70512;42.122;24.732;2023-06-22T00:25:45;23.90;57.60
79760;DHT22;70512;42.122;24.732;2023-06-22T00:28:13;23.90;57.60
79760;DHT22;70512;42.122;24.732;2023-06-22T00:30:40;23.90;58.60
79760;DHT22;70512;42.122;24.732;2023-06-22T00:33:08;23.90;58.10
79760;DHT22;70512;42.122;24.732;2023-06-22T00:35:35;23.90;57.80
79760;DHT22;70512;42.122;24.732;2023-06-22T00:38:03;24.00;58.20
79760;DHT22;70512;42.122;24.732;2023-06-22T00:40:32;23.90;58.30
79760;DHT22;70512;42.122;24.732;2023-06-22T00:43:00;23.90;58.50
79760;DHT22;70512;42.122;24.732;2023-06-22T00:45:27;23.90;58.30
79760;DHT22;70512;42.122;24.732;2023-06-22T00:47:57;23.90;58.70
79760;DHT22;70512;42.122;24.732;2023-06-22T00:50:27;23.90;58.30
79760;DHT22;70512;42.122;24.732;2023-06-22T00:52:57;23.80;58.60
79760;DHT22;70512;42.122;24.732;2023-06-22T00:55:25;23.80;58.90
79760;DHT22;70512;42.122;24.732;2023-06-22T00:57:54;23.80;59.30
79760;DHT22;70512;42.122;24.732;2023-06-22T01:00:25;23.80;59.30
79760;DHT22;70512;42.122;24.732;2023-06-22T01:02:53;23.70;59.20
79760;DHT22;70512;42.122;24.732;2023-06-22T01:05:21;23.60;59.40
79760;DHT22;70512;42.122;24.732;2023-06-22T01:16:40;23.30;60.80
79760;DHT22;70512;42.122;24.732;2023-06-22T01:19:20;23.30;60.80
79760;DHT22;70512;42.122;24.732;2023-06-22T01:21:45;23.20;61.10
79760;DHT22;70512;42.122;24.732;2023-06-22T01:29:41;23.00;63.10
79760;DHT22;70512;42.122;24.732;2023-06-22T01:32:10;23.00;63.50
79760;DHT22;70512;42.122;24.732;2023-06-22T01:34:38;22.90;64.10
79760;DHT22;70512;42.122;24.732;2023-06-22T01:37:07;22.80;64.60
79760;DHT22;70512;42.122;24.732;2023-06-22T01:39:36;22.80;64.80
79760;DHT22;70512;42.122;24.732;2023-06-22T01:42:04;22.70;64.90
79760;DHT22;70512;42.122;24.732;2023-06-22T01:44:32;22.60;65.20
79760;DHT22;70512;42.122;24.732;2023-06-22T01:47:02;22.70;65.20
79760;DHT22;70512;42.122;24.732;2023-06-22T01:49:29;22.70;65.00
79760;DHT22;70512;42.122;24.732;2023-06-22T01:51:57;22.70;64.90
79760;DHT22;70512;42.122;24.732;2023-06-22T01:54:25;22.70;64.80
79760;DHT22;70512;42.122;24.732;2023-06-22T01:56:53;22.60;64.80
79760;DHT22;70512;42.122;24.732;2023-06-22T01:59:26;22.60;64.90
79760;DHT22;70512;42.122;24.732;2023-06-22T02:01:57;22.50;65.00
79760;DHT22;70512;42.122;24.732;2023-06-22T02:04:27;22.50;64.70
79760;DHT22;70512;42.122;24.732;2023-06-22T02:06:58;22.50;64.40
79760;DHT22;70512;42.122;24.732;2023-06-22T02:09:29;22.40;64.90
79760;DHT22;70512;42.122;24.732;2023-06-22T02:11:57;22.30;65.20
79760;DHT22;70512;42.122;24.732;2023-06-22T02:14:26;22.30;65.40
79760;DHT22;70512;42.122;24.732;2023-06-22T02:16:54;22.20;65.70
79760;DHT22;70512;42.122;24.732;2023-06-22T02:19:24;22.30;65.60
79760;DHT22;70512;42.122;24.732;2023-06-22T02:21:52;22.20;65.60
79760;DHT22;70512;42.122;24.732;2023-06-22T02:24:20;22.20;65.70
79760;DHT22;70512;42.122;24.732;2023-06-22T02:26:49;22.10;66.10
79760;DHT22;70512;42.122;24.732;2023-06-22T02:29:17;22.10;66.80
79760;DHT22;70512;42.122;24.732;2023-06-22T02:31:45;22.00;66.90
79760;DHT22;70512;42.122;24.732;2023-06-22T02:34:12;21.90;67.30
79760;DHT22;70512;42.122;24.732;2023-06-22T02:36:41;21.90;67.20
79760;DHT22;70512;42.122;24.732;2023-06-22T02:39:11;21.90;67.20
79760;DHT22;70512;42.122;24.732;2023-06-22T02:41:43;21.90;67.70
79760;DHT22;70512;42.122;24.732;2023-06-22T02:44:07;21.80;68.00
79760;DHT22;70512;42.122;24.732;2023-06-22T02:46:36;21.70;68.20
79760;DHT22;70512;42.122;24.732;2023-06-22T02:49:04;21.70;68.10
79760;DHT22;70512;42.122;24.732;2023-06-22T02:51:33;21.70;68.20
79760;DHT22;70512;42.122;24.732;2023-06-22T02:54:01;21.70;68.50
79760;DHT22;70512;42.122;24.732;2023-06-22T02:56:29;21.70;68.20
79760;DHT22;70512;42.122;24.732;2023-06-22T02:58:58;21.70;68.10
79760;DHT22;70512;42.122;24.732;2023-06-22T03:01:29;21.80;68.00
79760;DHT22;70512;42.122;24.732;2023-06-22T03:03:59;21.80;67.80
79760;DHT22;70512;42.122;24.732;2023-06-22T03:06:27;21.80;68.20
79760;DHT22;70512;42.122;24.732;2023-06-22T03:09:03;21.60;68.60
79760;DHT22;70512;42.122;24.732;2023-06-22T03:11:33;21.60;68.50
79760;DHT22;70512;42.122;24.732;2023-06-22T03:14:01;21.40;69.00
79760;DHT22;70512;42.122;24.732;2023-06-22T03:16:29;21.40;68.10
79760;DHT22;70512;42.122;24.732;2023-06-22T03:18:57;21.40;67.20
79760;DHT22;70512;42.122;24.732;2023-06-22T03:21:26;21.40;66.40
79760;DHT22;70512;42.122;24.732;2023-06-22T03:23:53;21.40;66.00
79760;DHT22;70512;42.122;24.732;2023-06-22T03:26:21;21.40;65.80
79760;DHT22;70512;42.122;24.732;2023-06-22T03:28:50;21.40;65.70
79760;DHT22;70512;42.122;24.732;2023-06-22T03:31:18;21.40;65.50
79760;DHT22;70512;42.122;24.732;2023-06-22T03:33:49;21.40;65.20
79760;DHT22;70512;42.122;24.732;2023-06-22T03:36:17;21.40;65.40
79760;DHT22;70512;42.122;24.732;2023-06-22T03:38:49;21.40;66.10
79760;DHT22;70512;42.122;24.732;2023-06-22T03:41:17;21.40;66.20
79760;DHT22;70512;42.122;24.732;2023-06-22T03:43:45;21.40;66.30
79760;DHT22;70512;42.122;24.732;2023-06-22T03:46:12;21.30;66.40
79760;DHT22;70512;42.122;24.732;2023-06-22T03:48:40;21.40;66.50
79760;DHT22;70512;42.122;24.732;2023-06-22T03:51:07;21.30;66.60
79760;DHT22;70512;42.122;24.732;2023-06-22T03:53:36;21.40;66.50
79760;DHT22;70512;42.122;24.732;2023-06-22T03:56:04;21.40;66.70
79760;DHT22;70512;42.122;24.732;2023-06-22T03:58:31;21.30;66.70
79760;DHT22;70512;42.122;24.732;2023-06-22T04:01:00;21.30;66.80
79760;DHT22;70512;42.122;24.732;2023-06-22T04:03:27;21.30;67.00
79760;DHT22;70512;42.122;24.732;2023-06-22T04:05:55;21.40;66.90
79760;DHT22;70512;42.122;24.732;2023-06-22T04:08:23;21.40;66.70
79760;DHT22;70512;42.122;24.732;2023-06-22T04:10:50;21.60;66.40
79760;DHT22;70512;42.122;24.732;2023-06-22T04:13:18;21.60;66.20
79760;DHT22;70512;42.122;24.732;2023-06-22T04:15:46;21.70;66.10
79760;DHT22;70512;42.122;24.732;2023-06-22T04:18:13;21.70;66.00
79760;DHT22;70512;42.122;24.732;2023-06-22T04:20:41;21.70;66.00
79760;DHT22;70512;42.122;24.732;2023-06-22T04:23:10;21.80;65.70
79760;DHT22;70512;42.122;24.732;2023-06-22T04:25:39;21.90;65.50
79760;DHT22;70512;42.122;24.732;2023-06-22T04:28:07;21.90;65.20
79760;DHT22;70512;42.122;24.732;2023-06-22T04:30:36;22.00;65.10
79760;DHT22;70512;42.122;24.732;2023-06-22T04:33:05;22.00;64.80
79760;DHT22;70512;42.122;24.732;2023-06-22T04:35:33;22.00;64.90
79760;DHT22;70512;42.122;24.732;2023-06-22T04:38:00;22.20;64.30
79760;DHT22;70512;42.122;24.732;2023-06-22T04:40:30;22.30;64.10
79760;DHT22;70512;42.122;24.732;2023-06-22T04:42:57;22.40;63.70
79760;DHT22;70512;42.122;24.732;2023-06-22T04:45:26;22.50;63.20
79760;DHT22;70512;42.122;24.732;2023-06-22T04:47:54;22.60;63.40
79760;DHT22;70512;42.122;24.732;2023-06-22T04:50:22;22.70;62.80
79760;DHT22;70512;42.122;24.732;2023-06-22T04:52:51;22.80;62.30
79760;DHT22;70512;42.122;24.732;2023-06-22T04:55:19;22.90;62.40
79760;DHT22;70512;42.122;24.732;2023-06-22T04:57:47;22.80;62.90
79760;DHT22;70512;42.122;24.732;2023-06-22T05:00:17;22.90;62.40
79760;DHT22;70512;42.122;24.732;2023-06-22T05:02:46;22.90;62.60
79760;DHT22;70512;42.122;24.732;2023-06-22T05:05:14;22.80;62.60
79760;DHT22;70512;42.122;24.732;2023-06-22T05:07:44;22.90;62.50
79760;DHT22;70512;42.122;24.732;2023-06-22T05:10:14;23.00;62.90
79760;DHT22;70512;42.122;24.732;2023-06-22T05:12:42;23.00;63.30
79760;DHT22;70512;42.122;24.732;2023-06-22T05:15:10;23.10;63.20
79760;DHT22;70512;42.122;24.732;2023-06-22T05:17:38;23.20;62.60
79760;DHT22;70512;42.122;24.732;2023-06-22T05:20:09;23.30;63.00
79760;DHT22;70512;42.122;24.732;2023-06-22T05:22:37;23.40;62.30
79760;DHT22;70512;42.122;24.732;2023-06-22T05:25:09;23.50;62.10
79760;DHT22;70512;42.122;24.732;2023-06-22T05:27:36;23.70;61.40
79760;DHT22;70512;42.122;24.732;2023-06-22T05:30:10;23.70;61.70
79760;DHT22;70512;42.122;24.732;2023-06-22T05:32:38;23.80;61.40
79760;DHT22;70512;42.122;24.732;2023-06-22T05:35:06;23.90;61.10
79760;DHT22;70512;42.122;24.732;2023-06-22T05:37:34;24.10;60.80
79760;DHT22;70512;42.122;24.732;2023-06-22T05:40:02;24.20;60.30
79760;DHT22;70512;42.122;24.732;2023-06-22T05:42:30;24.30;59.70
79760;DHT22;70512;42.122;24.732;2023-06-22T05:44:58;24.40;59.60
79760;DHT22;70512;42.122;24.732;2023-06-22T05:47:25;24.50;59.60
79760;DHT22;70512;42.122;24.732;2023-06-22T05:49:53;24.50;59.10
79760;DHT22;70512;42.122;24.732;2023-06-22T05:52:20;24.70;59.00
79760;DHT22;70512;42.122;24.732;2023-06-22T05:54:48;24.90;58.40
79760;DHT22;70512;42.122;24.732;2023-06-22T05:57:16;25.00;57.40
79760;DHT22;70512;42.122;24.732;2023-06-22T05:59:43;25.20;56.80
79760;DHT22;70512;42.122;24.732;2023-06-22T06:02:11;25.40;56.30
79760;DHT22;70512;42.122;24.732;2023-06-22T06:04:38;25.40;55.20
79760;DHT22;70512;42.122;24.732;2023-06-22T06:07:07;25.50;55.20
79760;DHT22;70512;42.122;24.732;2023-06-22T06:09:35;25.60;54.40
79760;DHT22;70512;42.122;24.732;2023-06-22T06:12:03;25.70;54.00
79760;DHT22;70512;42.122;24.732;2023-06-22T06:14:31;25.80;53.60
79760;DHT22;70512;42.122;24.732;2023-06-22T06:16:58;25.90;53.50
79760;DHT22;70512;42.122;24.732;2023-06-22T06:19:26;26.00;53.10
79760;DHT22;70512;42.122;24.732;2023-06-22T06:21:53;26.10;52.70
79760;DHT22;70512;42.122;24.732;2023-06-22T06:24:21;26.20;52.40
79760;DHT22;70512;42.122;24.732;2023-06-22T06:26:48;26.30;52.20
79760;DHT22;70512;42.122;24.732;2023-06-22T06:29:16;26.30;51.70
79760;DHT22;70512;42.122;24.732;2023-06-22T06:31:43;26.50;51.40
79760;DHT22;70512;42.122;24.732;2023-06-22T06:34:11;26.50;51.10
79760;DHT22;70512;42.122;24.732;2023-06-22T06:36:38;26.50;50.50
79760;DHT22;70512;42.122;24.732;2023-06-22T06:39:06;26.70;50.30
79760;DHT22;70512;42.122;24.732;2023-06-22T06:41:35;26.70;49.80
79760;DHT22;70512;42.122;24.732;2023-06-22T06:44:02;26.80;49.60
79760;DHT22;70512;42.122;24.732;2023-06-22T06:46:30;26.90;49.90
79760;DHT22;70512;42.122;24.732;2023-06-22T06:48:58;27.00;49.80
79760;DHT22;70512;42.122;24.732;2023-06-22T06:51:26;27.10;48.70
79760;DHT22;70512;42.122;24.732;2023-06-22T06:53:53;27.30;48.90
79760;DHT22;70512;42.122;24.732;2023-06-22T06:56:21;27.40;48.30
79760;DHT22;70512;42.122;24.732;2023-06-22T06:58:50;27.50;47.90
79760;DHT22;70512;42.122;24.732;2023-06-22T07:01:18;27.60;47.30
79760;DHT22;70512;42.122;24.732;2023-06-22T07:03:46;27.70;46.80
79760;DHT22;70512;42.122;24.732;2023-06-22T07:06:14;27.80;46.50
79760;DHT22;70512;42.122;24.732;2023-06-22T07:08:43;27.80;46.40
79760;DHT22;70512;42.122;24.732;2023-06-22T07:11:10;28.00;46.10
79760;DHT22;70512;42.122;24.732;2023-06-22T07:13:38;28.10;46.40
79760;DHT22;70512;42.122;24.732;2023-06-22T07:16:05;28.20;46.50
79760;DHT22;70512;42.122;24.732;2023-06-22T07:18:33;28.20;45.80
79760;DHT22;70512;42.122;24.732;2023-06-22T07:21:00;28.30;46.00
79760;DHT22;70512;42.122;24.732;2023-06-22T07:23:29;28.30;46.30
79760;DHT22;70512;42.122;24.732;2023-06-22T07:25:57;28.20;46.10
79760;DHT22;70512;42.122;24.732;2023-06-22T07:28:26;28.20;45.70
79760;DHT22;70512;42.122;24.732;2023-06-22T07:30:53;28.20;45.70
79760;DHT22;70512;42.122;24.732;2023-06-22T07:33:21;28.20;45.60
79760;DHT22;70512;42.122;24.732;2023-06-22T07:35:49;28.20;45.90
79760;DHT22;70512;42.122;24.732;2023-06-22T07:38:18;28.20;45.90
79760;DHT22;70512;42.122;24.732;2023-06-22T07:40:46;28.30;45.80
79760;DHT22;70512;42.122;24.732;2023-06-22T07:43:14;28.40;45.00
79760;DHT22;70512;42.122;24.732;2023-06-22T07:45:47;28.50;43.60
79760;DHT22;70512;42.122;24.732;2023-06-22T07:48:15;28.60;43.40
79760;DHT22;70512;42.122;24.732;2023-06-22T07:50:42;28.60;42.10
79760;DHT22;70512;42.122;24.732;2023-06-22T07:53:10;28.70;42.40
79760;DHT22;70512;42.122;24.732;2023-06-22T07:55:37;28.80;42.20
79760;DHT22;70512;42.122;24.732;2023-06-22T07:58:05;28.80;42.40
79760;DHT22;70512;42.122;24.732;2023-06-22T08:00:34;28.90;42.40
79760;DHT22;70512;42.122;24.732;2023-06-22T08:03:02;28.90;41.70
79760;DHT22;70512;42.122;24.732;2023-06-22T08:05:31;29.00;41.70
79760;DHT22;70512;42.122;24.732;2023-06-22T08:07:59;29.20;41.20
79760;DHT22;70512;42.122;24.732;2023-06-22T08:10:27;29.30;41.00
79760;DHT22;70512;42.122;24.732;2023-06-22T08:12:54;29.40;39.90
79760;DHT22;70512;42.122;24.732;2023-06-22T08:15:22;29.40;40.30
79760;DHT22;70512;42.122;24.732;2023-06-22T08:17:49;29.60;40.30
79760;DHT22;70512;42.122;24.732;2023-06-22T08:20:18;29.60;39.80
79760;DHT22;70512;42.122;24.732;2023-06-22T08:22:46;29.70;40.00
79760;DHT22;70512;42.122;24.732;2023-06-22T08:25:13;29.80;39.30
79760;DHT22;70512;42.122;24.732;2023-06-22T08:27:46;29.90;39.30
79760;DHT22;70512;42.122;24.732;2023-06-22T08:30:14;30.00;38.60
79760;DHT22;70512;42.122;24.732;2023-06-22T08:32:43;30.10;38.70
79760;DHT22;70512;42.122;24.732;2023-06-22T08:35:10;30.10;38.40
79760;DHT22;70512;42.122;24.732;2023-06-22T08:37:38;30.20;38.70
79760;DHT22;70512;42.122;24.732;2023-06-22T08:40:09;30.40;38.50
79760;DHT22;70512;42.122;24.732;2023-06-22T08:42:38;30.50;38.30
79760;DHT22;70512;42.122;24.732;2023-06-22T08:45:06;30.60;37.60
79760;DHT22;70512;42.122;24.732;2023-06-22T08:47:34;30.70;37.70
79760;DHT22;70512;42.122;24.732;2023-06-22T08:50:03;30.90;37.10
79760;DHT22;70512;42.122;24.732;2023-06-22T08:52:32;30.90;36.40
79760;DHT22;70512;42.122;24.732;2023-06-22T08:54:59;31.00;36.80
79760;DHT22;70512;42.122;24.732;2023-06-22T08:57:27;31.00;35.70
79760;DHT22;70512;42.122;24.732;2023-06-22T08:59:57;31.20;35.60
79760;DHT22;70512;42.122;24.732;2023-06-22T09:02:27;31.30;36.00
79760;DHT22;70512;42.122;24.732;2023-06-22T09:05:03;31.50;36.00
79760;DHT22;70512;42.122;24.732;2023-06-22T09:07:29;31.70;35.60
79760;DHT22;70512;42.122;24.732;2023-06-22T09:09:56;31.70;34.40
79760;DHT22;70512;42.122;24.732;2023-06-22T09:12:24;31.80;33.80
79760;DHT22;70512;42.122;24.732;2023-06-22T09:14:54;31.90;33.40
79760;DHT22;70512;42.122;24.732;2023-06-22T09:17:22;32.00;34.00
79760;DHT22;70512;42.122;24.732;2023-06-22T09:19:50;32.00;33.10
79760;DHT22;70512;42.122;24.732;2023-06-22T09:22:18;32.10;33.20
79760;DHT22;70512;42.122;24.732;2023-06-22T09:24:45;32.10;32.00
79760;DHT22;70512;42.122;24.732;2023-06-22T09:27:13;32.10;30.90
79760;DHT22;70512;42.122;24.732;2023-06-22T09:29:41;32.20;31.40
79760;DHT22;70512;42.122;24.732;2023-06-22T09:32:08;32.30;31.50
79760;DHT22;70512;42.122;24.732;2023-06-22T09:34:36;32.50;32.00
79760;DHT22;70512;42.122;24.732;2023-06-22T09:37:04;32.70;32.60
79760;DHT22;70512;42.122;24.732;2023-06-22T09:39:32;33.00;31.90
79760;DHT22;70512;42.122;24.732;2023-06-22T09:42:00;33.10;31.50
79760;DHT22;70512;42.122;24.732;2023-06-22T09:44:27;33.30;30.90
79760;DHT22;70512;42.122;24.732;2023-06-22T09:46:55;33.30;30.40
79760;DHT22;70512;42.122;24.732;2023-06-22T09:49:23;33.40;30.50
79760;DHT22;70512;42.122;24.732;2023-06-22T09:51:51;33.30;30.30
79760;DHT22;70512;42.122;24.732;2023-06-22T09:54:19;33.30;30.70
79760;DHT22;70512;42.122;24.732;2023-06-22T09:56:46;33.30;30.30
79760;DHT22;70512;42.122;24.732;2023-06-22T09:59:14;33.10;30.20
79760;DHT22;70512;42.122;24.732;2023-06-22T10:01:42;33.00;30.60
79760;DHT22;70512;42.122;24.732;2023-06-22T10:04:09;32.90;30.60
79760;DHT22;70512;42.122;24.732;2023-06-22T10:06:37;32.70;30.70
79760;DHT22;70512;42.122;24.732;2023-06-22T10:09:07;32.70;30.60
79760;DHT22;70512;42.122;24.732;2023-06-22T10:11:34;32.70;30.90
79760;DHT22;70512;42.122;24.732;2023-06-22T10:14:03;32.60;31.20
79760;DHT22;70512;42.122;24.732;2023-06-22T10:16:31;32.70;30.90
79760;DHT22;70512;42.122;24.732;2023-06-22T10:18:59;32.80;30.70
79760;DHT22;70512;42.122;24.732;2023-06-22T10:21:27;33.00;30.10
79760;DHT22;70512;42.122;24.732;2023-06-22T10:23:55;33.10;30.00
79760;DHT22;70512;42.122;24.732;2023-06-22T10:26:23;33.30;29.80
79760;DHT22;70512;42.122;24.732;2023-06-22T10:28:51;33.50;29.60
79760;DHT22;70512;42.122;24.732;2023-06-22T10:31:18;33.70;29.50
79760;DHT22;70512;42.122;24.732;2023-06-22T10:33:47;34.00;29.40
79760;DHT22;70512;42.122;24.732;2023-06-22T10:36:16;34.20;29.10
79760;DHT22;70512;42.122;24.732;2023-06-22T10:38:43;34.40;28.70
79760;DHT22;70512;42.122;24.732;2023-06-22T10:41:11;34.70;28.80
79760;DHT22;70512;42.122;24.732;2023-06-22T10:43:39;34.90;28.20
79760;DHT22;70512;42.122;24.732;2023-06-22T10:46:07;34.80;28.00
79760;DHT22;70512;42.122;24.732;2023-06-22T10:48:35;34.80;27.60
79760;DHT22;70512;42.122;24.732;2023-06-22T10:51:02;34.70;27.50
79760;DHT22;70512;42.122;24.732;2023-06-22T10:53:31;34.60;27.70
79760;DHT22;70512;42.122;24.732;2023-06-22T10:55:59;34.70;27.90
79760;DHT22;70512;42.122;24.732;2023-06-22T10:58:26;35.00;28.20
79760;DHT22;70512;42.122;24.732;2023-06-22T11:00:54;35.20;28.10
79760;DHT22;70512;42.122;24.732;2023-06-22T11:03:22;35.40;27.50
79760;DHT22;70512;42.122;24.732;2023-06-22T11:05:49;35.70;27.00
79760;DHT22;70512;42.122;24.732;2023-06-22T11:08:17;36.00;27.00
79760;DHT22;70512;42.122;24.732;2023-06-22T11:10:44;36.40;26.80
79760;DHT22;70512;42.122;24.732;2023-06-22T11:13:12;36.60;26.10
79760;DHT22;70512;42.122;24.732;2023-06-22T11:15:40;37.00;25.10
79760;DHT22;70512;42.122;24.732;2023-06-22T11:18:08;37.70;24.80
79760;DHT22;70512;42.122;24.732;2023-06-22T11:20:35;39.50;23.90
79760;DHT22;70512;42.122;24.732;2023-06-22T11:23:05;41.90;21.80
79760;DHT22;70512;42.122;24.732;2023-06-22T11:25:33;44.00;20.10
79760;DHT22;70512;42.122;24.732;2023-06-22T11:28:05;45.80;18.90
79760;DHT22;70512;42.122;24.732;2023-06-22T11:30:32;47.90;17.50
79760;DHT22;70512;42.122;24.732;2023-06-22T11:33:01;49.30;16.40
79760;DHT22;70512;42.122;24.732;2023-06-22T11:35:31;49.50;15.40
79760;DHT22;70512;42.122;24.732;2023-06-22T11:37:57;50.00;15.70
79760;DHT22;70512;42.122;24.732;2023-06-22T11:40:25;49.70;15.90
79760;DHT22;70512;42.122;24.732;2023-06-22T11:42:53;50.80;15.70
79760;DHT22;70512;42.122;24.732;2023-06-22T11:45:20;52.20;15.10
79760;DHT22;70512;42.122;24.732;2023-06-22T11:47:48;52.40;14.60
79760;DHT22;70512;42.122;24.732;2023-06-22T11:50:16;53.20;14.60
79760;DHT22;70512;42.122;24.732;2023-06-22T11:52:43;53.70;14.30
79760;DHT22;70512;42.122;24.732;2023-06-22T11:55:11;53.90;13.80
79760;DHT22;70512;42.122;24.732;2023-06-22T11:57:54;52.30;14.60
79760;DHT22;70512;42.122;24.732;2023-06-22T12:00:09;52.80;14.50
79760;DHT22;70512;42.122;24.732;2023-06-22T12:02:44;51.30;14.60
79760;DHT22;70512;42.122;24.732;2023-06-22T12:05:12;48.90;16.10
79760;DHT22;70512;42.122;24.732;2023-06-22T12:07:40;46.50;17.40
79760;DHT22;70512;42.122;24.732;2023-06-22T12:10:08;45.40;18.50
79760;DHT22;70512;42.122;24.732;2023-06-22T12:12:35;46.80;18.40
79760;DHT22;70512;42.122;24.732;2023-06-22T12:15:03;48.90;16.70
79760;DHT22;70512;42.122;24.732;2023-06-22T12:17:32;50.70;15.70
79760;DHT22;70512;42.122;24.732;2023-06-22T12:20:01;50.70;15.40
79760;DHT22;70512;42.122;24.732;2023-06-22T12:22:31;52.20;14.90
79760;DHT22;70512;42.122;24.732;2023-06-22T12:24:59;52.20;14.40
79760;DHT22;70512;42.122;24.732;2023-06-22T12:27:26;52.10;14.70
79760;DHT22;70512;42.122;24.732;2023-06-22T12:29:54;52.10;14.50
79760;DHT22;70512;42.122;24.732;2023-06-22T12:32:22;53.10;14.20
79760;DHT22;70512;42.122;24.732;2023-06-22T12:34:50;52.90;13.90
79760;DHT22;70512;42.122;24.732;2023-06-22T12:37:17;52.30;14.70
79760;DHT22;70512;42.122;24.732;2023-06-22T12:39:45;52.70;14.30
79760;DHT22;70512;42.122;24.732;2023-06-22T12:42:13;53.50;13.90
79760;DHT22;70512;42.122;24.732;2023-06-22T12:44:41;53.30;13.50
79760;DHT22;70512;42.122;24.732;2023-06-22T12:47:11;53.80;13.70
79760;DHT22;70512;42.122;24.732;2023-06-22T12:49:38;53.90;13.40
79760;DHT22;70512;42.122;24.732;2023-06-22T12:52:11;52.30;14.40
79760;DHT22;70512;42.122;24.732;2023-06-22T12:54:39;50.80;15.00
79760;DHT22;70512;42.122;24.732;2023-06-22T12:57:07;49.40;15.90
79760;DHT22;70512;42.122;24.732;2023-06-22T12:59:34;48.00;16.40
79760;DHT22;70512;42.122;24.732;2023-06-22T13:02:02;46.30;17.60
79760;DHT22;70512;42.122;24.732;2023-06-22T13:04:30;45.00;18.60
79760;DHT22;70512;42.122;24.732;2023-06-22T13:06:57;43.70;19.30
79760;DHT22;70512;42.122;24.732;2023-06-22T13:09:25;42.50;20.40
79760;DHT22;70512;42.122;24.732;2023-06-22T13:11:52;41.60;21.40
79760;DHT22;70512;42.122;24.732;2023-06-22T13:14:20;41.00;22.00
79760;DHT22;70512;42.122;24.732;2023-06-22T13:16:48;40.40;22.30
79760;DHT22;70512;42.122;24.732;2023-06-22T13:19:15;40.00;22.70
79760;DHT22;70512;42.122;24.732;2023-06-22T13:21:43;39.70;23.00
79760;DHT22;70512;42.122;24.732;2023-06-22T13:24:10;39.40;23.50
79760;DHT22;70512;42.122;24.732;2023-06-22T13:26:38;39.00;24.30
79760;DHT22;70512;42.122;24.732;2023-06-22T13:29:06;38.60;24.70
79760;DHT22;70512;42.122;24.732;2023-06-22T13:31:33;38.20;25.20
79760;DHT22;70512;42.122;24.732;2023-06-22T13:34:01;37.80;25.50
79760;DHT22;70512;42.122;24.732;2023-06-22T13:36:29;37.40;26.00
79760;DHT22;70512;42.122;24.732;2023-06-22T13:38:57;36.90;26.50
79760;DHT22;70512;42.122;24.732;2023-06-22T13:41:24;36.50;27.10
79760;DHT22;70512;42.122;24.732;2023-06-22T13:43:52;36.10;27.80
79760;DHT22;70512;42.122;24.732;2023-06-22T13:46:20;35.80;30.30
79760;DHT22;70512;42.122;24.732;2023-06-22T13:48:47;35.50;30.10
79760;DHT22;70512;42.122;24.732;2023-06-22T13:51:15;35.30;29.80
79760;DHT22;70512;42.122;24.732;2023-06-22T13:53:42;35.10;30.00
79760;DHT22;70512;42.122;24.732;2023-06-22T13:56:10;34.90;30.50
79760;DHT22;70512;42.122;24.732;2023-06-22T13:58:38;34.70;31.00
79760;DHT22;70512;42.122;24.732;2023-06-22T14:01:05;34.60;31.50
79760;DHT22;70512;42.122;24.732;2023-06-22T14:03:33;34.50;31.70
79760;DHT22;70512;42.122;24.732;2023-06-22T14:06:00;34.50;32.30
79760;DHT22;70512;42.122;24.732;2023-06-22T14:08:28;34.60;31.30
79760;DHT22;70512;42.122;24.732;2023-06-22T14:10:56;34.80;29.90
79760;DHT22;70512;42.122;24.732;2023-06-22T14:13:23;35.10;29.40
79760;DHT22;70512;42.122;24.732;2023-06-22T14:15:51;35.30;29.50
79760;DHT22;70512;42.122;24.732;2023-06-22T14:18:20;35.40;29.10
79760;DHT22;70512;42.122;24.732;2023-06-22T14:20:49;35.40;29.00
79760;DHT22;70512;42.122;24.732;2023-06-22T14:23:17;35.40;29.00
79760;DHT22;70512;42.122;24.732;2023-06-22T14:25:45;35.40;29.20
79760;DHT22;70512;42.122;24.732;2023-06-22T14:28:12;35.40;29.80
79760;DHT22;70512;42.122;24.732;2023-06-22T14:30:40;35.30;33.30
79760;DHT22;70512;42.122;24.732;2023-06-22T14:33:07;34.90;34.00
79760;DHT22;70512;42.122;24.732;2023-06-22T14:35:35;34.90;34.20
79760;DHT22;70512;42.122;24.732;2023-06-22T14:38:02;34.70;32.90
79760;DHT22;70512;42.122;24.732;2023-06-22T14:40:30;34.50;33.10
79760;DHT22;70512;42.122;24.732;2023-06-22T14:42:57;34.30;33.20
79760;DHT22;70512;42.122;24.732;2023-06-22T14:45:25;34.10;33.60
79760;DHT22;70512;42.122;24.732;2023-06-22T14:47:53;33.90;34.60
79760;DHT22;70512;42.122;24.732;2023-06-22T14:50:20;33.60;35.20
79760;DHT22;70512;42.122;24.732;2023-06-22T14:52:48;33.40;35.80
79760;DHT22;70512;42.122;24.732;2023-06-22T14:55:16;33.20;36.40
79760;DHT22;70512;42.122;24.732;2023-06-22T14:57:43;32.90;37.20
79760;DHT22;70512;42.122;24.732;2023-06-22T15:00:11;32.80;36.70
79760;DHT22;70512;42.122;24.732;2023-06-22T15:02:41;32.70;37.20
79760;DHT22;70512;42.122;24.732;2023-06-22T15:05:08;32.70;37.90
79760;DHT22;70512;42.122;24.732;2023-06-22T15:07:37;32.30;39.40
79760;DHT22;70512;42.122;24.732;2023-06-22T15:10:06;32.00;41.00
79760;DHT22;70512;42.122;24.732;2023-06-22T15:12:34;32.00;42.80
79760;DHT22;70512;42.122;24.732;2023-06-22T15:15:02;29.60;56.60
79760;DHT22;70512;42.122;24.732;2023-06-22T15:17:29;26.90;64.90
79760;DHT22;70512;42.122;24.732;2023-06-22T15:19:58;25.90;76.40
79760;DHT22;70512;42.122;24.732;2023-06-22T15:22:26;25.40;70.70
79760;DHT22;70512;42.122;24.732;2023-06-22T15:24:53;25.10;75.70
79760;DHT22;70512;42.122;24.732;2023-06-22T15:27:23;25.20;78.10
79760;DHT22;70512;42.122;24.732;2023-06-22T15:29:50;25.70;76.00
79760;DHT22;70512;42.122;24.732;2023-06-22T15:32:18;26.40;74.40
79760;DHT22;70512;42.122;24.732;2023-06-22T15:34:45;26.90;75.90